sensor_id;sensor_type;location;lat;lon;timestamp;temperature;humidity
65752;DHT22;52486;51.098;13.770;2022-07-10T00:00:00;26.60;41.30
65752;DHT22;52486;51.098;13.770;2022-07-10T00:02:26;26.60;41.30
65752;DHT22;52486;51.098;13.770;2022-07-10T00:04:52;26.60;41.30
65752;DHT22;52486;51.098;13.770;2022-07-10T00:07:18;26.60;41.40
65752;DHT22;52486;51.098;13.770;2022-07-10T00:09:43;26.60;41.40
65752;DHT22;52486;51.098;13.770;2022-07-10T00:12:09;26.60;41.40
65752;DHT22;52486;51.098;13.770;2022-07-10T00:14:34;26.60;41.40
65752;DHT22;52486;51.098;13.770;2022-07-10T00:17:00;26.60;41.40
65752;DHT22;52486;51.098;13.770;2022-07-10T00:19:26;26.60;41.40
65752;DHT22;52486;51.098;13.770;2022-07-10T00:21:51;26.60;41.40
65752;DHT22;52486;51.098;13.770;2022-07-10T00:24:17;26.60;41.40
65752;DHT22;52486;51.098;13.770;2022-07-10T00:26:42;26.60;41.40
65752;DHT22;52486;51.098;13.770;2022-07-10T00:29:08;26.50;41.30
65752;DHT22;52486;51.098;13.770;2022-07-10T00:31:34;26.60;41.40
65752;DHT22;52486;51.098;13.770;2022-07-10T00:33:59;26.50;41.30
65752;DHT22;52486;51.098;13.770;2022-07-10T00:36:25;26.50;41.40
65752;DHT22;52486;51.098;13.770;2022-07-10T00:38:51;26.50;41.30
65752;DHT22;52486;51.098;13.770;2022-07-10T00:41:16;26.50;41.40
65752;DHT22;52486;51.098;13.770;2022-07-10T00:43:53;26.50;41.40
65752;DHT22;52486;51.098;13.770;2022-07-10T00:46:22;26.50;41.40
65752;DHT22;52486;51.098;13.770;2022-07-10T00:48:48;26.50;41.40
65752;DHT22;52486;51.098;13.770;2022-07-10T00:51:16;26.50;41.50
65752;DHT22;52486;51.098;13.770;2022-07-10T00:53:44;26.50;41.40
65752;DHT22;52486;51.098;13.770;2022-07-10T00:56:10;26.50;41.40
65752;DHT22;52486;51.098;13.770;2022-07-10T00:58:37;26.50;41.40
65752;DHT22;52486;51.098;13.770;2022-07-10T01:01:05;26.50;41.40
65752;DHT22;52486;51.098;13.770;2022-07-10T01:03:30;26.40;41.30
65752;DHT22;52486;51.098;13.770;2022-07-10T01:05:56;26.50;41.40
65752;DHT22;52486;51.098;13.770;2022-07-10T01:08:22;26.40;41.40
65752;DHT22;52486;51.098;13.770;2022-07-10T01:10:48;26.50;41.40
65752;DHT22;52486;51.098;13.770;2022-07-10T01:13:14;26.50;41.40
65752;DHT22;52486;51.098;13.770;2022-07-10T01:15:40;26.40;41.30
65752;DHT22;52486;51.098;13.770;2022-07-10T01:18:07;26.50;41.40
65752;DHT22;52486;51.098;13.770;2022-07-10T01:20:32;26.50;41.40
65752;DHT22;52486;51.098;13.770;2022-07-10T01:22:59;26.40;41.40
65752;DHT22;52486;51.098;13.770;2022-07-10T01:25:25;26.40;41.40
65752;DHT22;52486;51.098;13.770;2022-07-10T01:27:51;26.40;41.40
65752;DHT22;52486;51.098;13.770;2022-07-10T01:30:17;26.40;41.40
65752;DHT22;52486;51.098;13.770;2022-07-10T01:32:44;26.40;41.40
65752;DHT22;52486;51.098;13.770;2022-07-10T01:35:10;26.40;41.40
65752;DHT22;52486;51.098;13.770;2022-07-10T01:37:36;26.40;41.50
65752;DHT22;52486;51.098;13.770;2022-07-10T01:40:02;26.40;41.40
65752;DHT22;52486;51.098;13.770;2022-07-10T01:42:28;26.40;41.40
65752;DHT22;52486;51.098;13.770;2022-07-10T01:44:54;26.40;41.40
65752;DHT22;52486;51.098;13.770;2022-07-10T01:47:20;26.40;41.40
65752;DHT22;52486;51.098;13.770;2022-07-10T01:49:52;26.40;41.40
65752;DHT22;52486;51.098;13.770;2022-07-10T01:52:19;26.40;41.40
65752;DHT22;52486;51.098;13.770;2022-07-10T01:54:45;26.40;41.40
65752;DHT22;52486;51.098;13.770;2022-07-10T01:57:11;26.40;41.40
65752;DHT22;52486;51.098;13.770;2022-07-10T01:59:37;26.40;41.40
65752;DHT22;52486;51.098;13.770;2022-07-10T02:02:02;26.40;41.40
65752;DHT22;52486;51.098;13.770;2022-07-10T02:04:28;26.30;41.40
65752;DHT22;52486;51.098;13.770;2022-07-10T02:07:14;26.30;41.40
65752;DHT22;52486;51.098;13.770;2022-07-10T02:09:41;26.30;41.40
65752;DHT22;52486;51.098;13.770;2022-07-10T02:12:11;26.30;41.40
65752;DHT22;52486;51.098;13.770;2022-07-10T02:14:37;26.30;41.40
65752;DHT22;52486;51.098;13.770;2022-07-10T02:17:04;26.30;41.40
65752;DHT22;52486;51.098;13.770;2022-07-10T02:19:30;26.30;41.40
65752;DHT22;52486;51.098;13.770;2022-07-10T02:22:08;26.30;41.40
65752;DHT22;52486;51.098;13.770;2022-07-10T02:24:34;26.30;41.40
65752;DHT22;52486;51.098;13.770;2022-07-10T02:26:59;26.30;41.40
65752;DHT22;52486;51.098;13.770;2022-07-10T02:29:25;26.30;41.50
65752;DHT22;52486;51.098;13.770;2022-07-10T02:31:51;26.30;41.50
65752;DHT22;52486;51.098;13.770;2022-07-10T02:34:16;26.30;41.40
65752;DHT22;52486;51.098;13.770;2022-07-10T02:36:42;26.30;41.40
65752;DHT22;52486;51.098;13.770;2022-07-10T02:39:08;26.30;41.50
65752;DHT22;52486;51.098;13.770;2022-07-10T02:41:34;26.30;41.50
65752;DHT22;52486;51.098;13.770;2022-07-10T02:44:02;26.30;41.40
65752;DHT22;52486;51.098;13.770;2022-07-10T02:46:27;26.30;41.40
65752;DHT22;52486;51.098;13.770;2022-07-10T02:48:53;26.30;41.40
65752;DHT22;52486;51.098;13.770;2022-07-10T02:51:19;26.30;41.40
65752;DHT22;52486;51.098;13.770;2022-07-10T02:53:44;26.20;41.40
65752;DHT22;52486;51.098;13.770;2022-07-10T02:56:10;26.30;41.50
65752;DHT22;52486;51.098;13.770;2022-07-10T02:58:37;26.20;41.40
65752;DHT22;52486;51.098;13.770;2022-07-10T03:01:03;26.20;41.40
65752;DHT22;52486;51.098;13.770;2022-07-10T03:03:29;26.20;42.10
65752;DHT22;52486;51.098;13.770;2022-07-10T03:05:55;26.20;41.40
65752;DHT22;52486;51.098;13.770;2022-07-10T03:08:20;26.20;41.40
65752;DHT22;52486;51.098;13.770;2022-07-10T03:10:46;26.20;41.40
65752;DHT22;52486;51.098;13.770;2022-07-10T03:13:12;26.20;41.40
65752;DHT22;52486;51.098;13.770;2022-07-10T03:15:37;26.20;41.40
65752;DHT22;52486;51.098;13.770;2022-07-10T03:18:03;26.20;41.40
65752;DHT22;52486;51.098;13.770;2022-07-10T03:20:29;26.20;41.40
65752;DHT22;52486;51.098;13.770;2022-07-10T03:22:55;26.20;41.40
65752;DHT22;52486;51.098;13.770;2022-07-10T03:25:20;26.20;41.40
65752;DHT22;52486;51.098;13.770;2022-07-10T03:27:46;26.20;41.40
65752;DHT22;52486;51.098;13.770;2022-07-10T03:30:11;26.20;41.40
65752;DHT22;52486;51.098;13.770;2022-07-10T03:32:37;26.20;41.40
65752;DHT22;52486;51.098;13.770;2022-07-10T03:35:03;26.20;41.40
65752;DHT22;52486;51.098;13.770;2022-07-10T03:37:29;26.20;41.40
65752;DHT22;52486;51.098;13.770;2022-07-10T03:39:54;26.20;41.40
65752;DHT22;52486;51.098;13.770;2022-07-10T03:42:20;26.20;41.40
65752;DHT22;52486;51.098;13.770;2022-07-10T03:44:46;26.20;41.50
65752;DHT22;52486;51.098;13.770;2022-07-10T03:47:12;26.20;41.40
65752;DHT22;52486;51.098;13.770;2022-07-10T03:49:38;26.20;41.40
65752;DHT22;52486;51.098;13.770;2022-07-10T03:52:07;26.20;41.40
65752;DHT22;52486;51.098;13.770;2022-07-10T03:54:33;26.20;41.40
65752;DHT22;52486;51.098;13.770;2022-07-10T03:56:59;26.20;41.40
65752;DHT22;52486;51.098;13.770;2022-07-10T03:59:43;26.20;41.40
65752;DHT22;52486;51.098;13.770;2022-07-10T04:02:09;26.20;41.40
65752;DHT22;52486;51.098;13.770;2022-07-10T04:04:34;26.10;41.40
65752;DHT22;52486;51.098;13.770;2022-07-10T04:07:00;26.10;41.30
65752;DHT22;52486;51.098;13.770;2022-07-10T04:09:26;26.10;41.40
65752;DHT22;52486;51.098;13.770;2022-07-10T04:11:51;26.20;41.40
65752;DHT22;52486;51.098;13.770;2022-07-10T04:14:17;26.10;41.30
65752;DHT22;52486;51.098;13.770;2022-07-10T04:16:43;26.10;41.40
65752;DHT22;52486;51.098;13.770;2022-07-10T04:19:08;26.10;41.30
65752;DHT22;52486;51.098;13.770;2022-07-10T04:21:34;26.10;41.40
65752;DHT22;52486;51.098;13.770;2022-07-10T04:24:00;26.10;41.30
65752;DHT22;52486;51.098;13.770;2022-07-10T04:26:26;26.10;41.40
65752;DHT22;52486;51.098;13.770;2022-07-10T04:28:51;26.10;41.40
65752;DHT22;52486;51.098;13.770;2022-07-10T04:31:17;26.10;41.30
65752;DHT22;52486;51.098;13.770;2022-07-10T04:33:42;26.10;41.40
65752;DHT22;52486;51.098;13.770;2022-07-10T04:36:08;26.10;41.30
65752;DHT22;52486;51.098;13.770;2022-07-10T04:38:34;26.10;41.30
65752;DHT22;52486;51.098;13.770;2022-07-10T04:40:59;26.10;41.30
65752;DHT22;52486;51.098;13.770;2022-07-10T04:43:25;26.10;41.30
65752;DHT22;52486;51.098;13.770;2022-07-10T04:45:51;26.10;41.30
65752;DHT22;52486;51.098;13.770;2022-07-10T04:48:17;26.10;41.30
65752;DHT22;52486;51.098;13.770;2022-07-10T04:50:42;26.10;41.40
65752;DHT22;52486;51.098;13.770;2022-07-10T04:53:08;26.10;41.30
65752;DHT22;52486;51.098;13.770;2022-07-10T04:55:34;26.10;41.30
65752;DHT22;52486;51.098;13.770;2022-07-10T04:57:59;26.10;41.30
65752;DHT22;52486;51.098;13.770;2022-07-10T05:00:25;26.10;41.40
65752;DHT22;52486;51.098;13.770;2022-07-10T05:02:51;26.10;41.30
65752;DHT22;52486;51.098;13.770;2022-07-10T05:05:16;26.10;41.40
65752;DHT22;52486;51.098;13.770;2022-07-10T05:07:42;26.10;41.40
65752;DHT22;52486;51.098;13.770;2022-07-10T05:10:08;26.10;41.30
65752;DHT22;52486;51.098;13.770;2022-07-10T05:12:34;26.10;41.30
65752;DHT22;52486;51.098;13.770;2022-07-10T05:15:00;26.10;41.30
65752;DHT22;52486;51.098;13.770;2022-07-10T05:17:27;26.10;41.30
65752;DHT22;52486;51.098;13.770;2022-07-10T05:19:54;26.10;41.30
65752;DHT22;52486;51.098;13.770;2022-07-10T05:22:22;26.10;41.30
65752;DHT22;52486;51.098;13.770;2022-07-10T05:24:48;26.10;41.30
65752;DHT22;52486;51.098;13.770;2022-07-10T05:27:14;26.10;41.30
65752;DHT22;52486;51.098;13.770;2022-07-10T05:29:41;26.10;41.30
65752;DHT22;52486;51.098;13.770;2022-07-10T05:32:07;26.10;41.30
65752;DHT22;52486;51.098;13.770;2022-07-10T05:34:33;26.10;41.30
65752;DHT22;52486;51.098;13.770;2022-07-10T05:36:58;26.10;41.30
65752;DHT22;52486;51.098;13.770;2022-07-10T05:39:24;26.10;41.30
65752;DHT22;52486;51.098;13.770;2022-07-10T05:41:52;26.10;41.30
65752;DHT22;52486;51.098;13.770;2022-07-10T05:44:18;26.10;41.30
65752;DHT22;52486;51.098;13.770;2022-07-10T05:46:45;26.10;41.30
65752;DHT22;52486;51.098;13.770;2022-07-10T05:49:11;26.10;41.30
65752;DHT22;52486;51.098;13.770;2022-07-10T05:51:37;26.10;41.20
65752;DHT22;52486;51.098;13.770;2022-07-10T05:54:03;26.10;41.20
65752;DHT22;52486;51.098;13.770;2022-07-10T05:56:29;26.10;41.30
65752;DHT22;52486;51.098;13.770;2022-07-10T05:58:55;26.10;41.20
65752;DHT22;52486;51.098;13.770;2022-07-10T06:01:21;26.10;41.20
65752;DHT22;52486;51.098;13.770;2022-07-10T06:03:47;26.10;41.20
65752;DHT22;52486;51.098;13.770;2022-07-10T06:06:13;26.10;41.20
65752;DHT22;52486;51.098;13.770;2022-07-10T06:08:42;26.10;41.20
65752;DHT22;52486;51.098;13.770;2022-07-10T06:11:08;26.10;41.20
65752;DHT22;52486;51.098;13.770;2022-07-10T06:13:34;26.10;41.20
65752;DHT22;52486;51.098;13.770;2022-07-10T06:15:59;26.10;41.20
65752;DHT22;52486;51.098;13.770;2022-07-10T06:18:25;26.10;41.20
65752;DHT22;52486;51.098;13.770;2022-07-10T06:20:50;26.10;41.20
65752;DHT22;52486;51.098;13.770;2022-07-10T06:23:16;26.10;41.20
65752;DHT22;52486;51.098;13.770;2022-07-10T06:25:42;26.10;41.10
65752;DHT22;52486;51.098;13.770;2022-07-10T06:28:07;26.10;41.10
65752;DHT22;52486;51.098;13.770;2022-07-10T06:30:33;26.10;41.10
65752;DHT22;52486;51.098;13.770;2022-07-10T06:32:59;26.10;41.20
65752;DHT22;52486;51.098;13.770;2022-07-10T06:35:24;26.10;41.10
65752;DHT22;52486;51.098;13.770;2022-07-10T06:37:50;26.10;41.10
65752;DHT22;52486;51.098;13.770;2022-07-10T06:40:17;26.10;41.10
65752;DHT22;52486;51.098;13.770;2022-07-10T06:42:45;26.10;41.10
65752;DHT22;52486;51.098;13.770;2022-07-10T06:45:11;26.10;41.00
65752;DHT22;52486;51.098;13.770;2022-07-10T06:47:37;26.10;41.10
65752;DHT22;52486;51.098;13.770;2022-07-10T06:50:21;26.10;41.00
65752;DHT22;52486;51.098;13.770;2022-07-10T06:52:48;26.10;41.10
65752;DHT22;52486;51.098;13.770;2022-07-10T06:55:14;26.10;41.10
65752;DHT22;52486;51.098;13.770;2022-07-10T06:57:40;26.10;41.00
65752;DHT22;52486;51.098;13.770;2022-07-10T07:00:07;26.20;41.10
65752;DHT22;52486;51.098;13.770;2022-07-10T07:02:32;26.10;41.00
65752;DHT22;52486;51.098;13.770;2022-07-10T07:04:58;26.20;41.00
65752;DHT22;52486;51.098;13.770;2022-07-10T07:07:24;26.20;41.00
65752;DHT22;52486;51.098;13.770;2022-07-10T07:09:49;26.10;41.00
65752;DHT22;52486;51.098;13.770;2022-07-10T07:12:16;26.10;41.00
65752;DHT22;52486;51.098;13.770;2022-07-10T07:14:43;26.10;41.00
65752;DHT22;52486;51.098;13.770;2022-07-10T07:17:09;26.20;41.00
65752;DHT22;52486;51.098;13.770;2022-07-10T07:19:37;26.20;41.00
65752;DHT22;52486;51.098;13.770;2022-07-10T07:22:22;26.20;41.00
65752;DHT22;52486;51.098;13.770;2022-07-10T07:25:08;26.20;41.00
65752;DHT22;52486;51.098;13.770;2022-07-10T07:27:35;26.20;41.00
65752;DHT22;52486;51.098;13.770;2022-07-10T07:30:06;26.20;40.90
65752;DHT22;52486;51.098;13.770;2022-07-10T07:32:33;26.20;40.90
65752;DHT22;52486;51.098;13.770;2022-07-10T07:34:59;26.20;40.90
65752;DHT22;52486;51.098;13.770;2022-07-10T07:37:45;26.20;41.70
65752;DHT22;52486;51.098;13.770;2022-07-10T07:40:22;26.20;40.90
65752;DHT22;52486;51.098;13.770;2022-07-10T07:42:49;26.20;40.90
65752;DHT22;52486;51.098;13.770;2022-07-10T07:45:15;26.20;40.90
65752;DHT22;52486;51.098;13.770;2022-07-10T07:47:48;26.20;40.80
65752;DHT22;52486;51.098;13.770;2022-07-10T07:50:20;26.20;40.80
65752;DHT22;52486;51.098;13.770;2022-07-10T07:52:46;26.20;40.80
65752;DHT22;52486;51.098;13.770;2022-07-10T07:55:12;26.20;40.80
65752;DHT22;52486;51.098;13.770;2022-07-10T07:57:40;26.20;40.80
65752;DHT22;52486;51.098;13.770;2022-07-10T08:00:07;26.20;40.80
65752;DHT22;52486;51.098;13.770;2022-07-10T08:02:34;26.20;40.80
65752;DHT22;52486;51.098;13.770;2022-07-10T08:04:59;26.30;40.90
65752;DHT22;52486;51.098;13.770;2022-07-10T08:07:39;26.20;40.80
65752;DHT22;52486;51.098;13.770;2022-07-10T08:10:07;26.30;40.90
65752;DHT22;52486;51.098;13.770;2022-07-10T08:12:33;26.30;40.90
65752;DHT22;52486;51.098;13.770;2022-07-10T08:14:59;26.30;40.90
65752;DHT22;52486;51.098;13.770;2022-07-10T08:17:25;26.30;40.80
65752;DHT22;52486;51.098;13.770;2022-07-10T08:19:51;26.30;40.80
65752;DHT22;52486;51.098;13.770;2022-07-10T08:22:17;26.30;40.80
65752;DHT22;52486;51.098;13.770;2022-07-10T08:24:43;26.30;40.80
65752;DHT22;52486;51.098;13.770;2022-07-10T08:27:08;26.30;40.80
65752;DHT22;52486;51.098;13.770;2022-07-10T08:29:34;26.30;40.80
65752;DHT22;52486;51.098;13.770;2022-07-10T08:32:00;26.30;40.80
65752;DHT22;52486;51.098;13.770;2022-07-10T08:34:26;26.30;40.80
65752;DHT22;52486;51.098;13.770;2022-07-10T08:36:53;26.30;40.80
65752;DHT22;52486;51.098;13.770;2022-07-10T08:39:19;26.30;40.70
65752;DHT22;52486;51.098;13.770;2022-07-10T08:41:47;26.40;40.80
65752;DHT22;52486;51.098;13.770;2022-07-10T08:44:16;26.40;40.80
65752;DHT22;52486;51.098;13.770;2022-07-10T08:46:43;26.40;40.80
65752;DHT22;52486;51.098;13.770;2022-07-10T08:49:10;26.40;40.70
65752;DHT22;52486;51.098;13.770;2022-07-10T08:51:54;26.40;40.80
65752;DHT22;52486;51.098;13.770;2022-07-10T08:54:22;26.30;40.60
65752;DHT22;52486;51.098;13.770;2022-07-10T08:56:48;26.30;40.70
65752;DHT22;52486;51.098;13.770;2022-07-10T08:59:15;26.30;40.80
65752;DHT22;52486;51.098;13.770;2022-07-10T09:01:41;26.30;40.60
65752;DHT22;52486;51.098;13.770;2022-07-10T09:04:18;26.40;40.70
65752;DHT22;52486;51.098;13.770;2022-07-10T09:06:44;26.30;40.60
65752;DHT22;52486;51.098;13.770;2022-07-10T09:09:10;26.40;40.80
65752;DHT22;52486;51.098;13.770;2022-07-10T09:11:38;26.30;40.70
65752;DHT22;52486;51.098;13.770;2022-07-10T09:14:07;26.30;40.70
65752;DHT22;52486;51.098;13.770;2022-07-10T09:16:38;26.40;40.70
65752;DHT22;52486;51.098;13.770;2022-07-10T09:19:22;26.40;40.70
65752;DHT22;52486;51.098;13.770;2022-07-10T09:21:53;26.40;40.70
65752;DHT22;52486;51.098;13.770;2022-07-10T09:24:20;26.30;40.60
65752;DHT22;52486;51.098;13.770;2022-07-10T09:27:00;26.40;40.70
65752;DHT22;52486;51.098;13.770;2022-07-10T09:29:27;26.30;40.60
65752;DHT22;52486;51.098;13.770;2022-07-10T09:31:54;26.30;40.60
65752;DHT22;52486;51.098;13.770;2022-07-10T09:39:59;26.40;40.70
65752;DHT22;52486;51.098;13.770;2022-07-10T09:42:26;26.40;40.70
65752;DHT22;52486;51.098;13.770;2022-07-10T09:45:11;26.40;40.60
65752;DHT22;52486;51.098;13.770;2022-07-10T09:47:45;26.40;40.60
65752;DHT22;52486;51.098;13.770;2022-07-10T09:50:27;26.40;40.60
65752;DHT22;52486;51.098;13.770;2022-07-10T09:53:07;26.40;40.60
65752;DHT22;52486;51.098;13.770;2022-07-10T09:55:36;26.40;40.60
65752;DHT22;52486;51.098;13.770;2022-07-10T09:58:03;26.40;40.60
65752;DHT22;52486;51.098;13.770;2022-07-10T10:00:34;26.40;40.60
65752;DHT22;52486;51.098;13.770;2022-07-10T10:03:04;26.40;40.60
65752;DHT22;52486;51.098;13.770;2022-07-10T10:05:42;26.40;40.50
65752;DHT22;52486;51.098;13.770;2022-07-10T10:08:21;26.40;40.60
65752;DHT22;52486;51.098;13.770;2022-07-10T10:10:49;26.40;40.60
65752;DHT22;52486;51.098;13.770;2022-07-10T10:13:26;26.40;40.50
65752;DHT22;52486;51.098;13.770;2022-07-10T10:15:53;26.50;40.60
65752;DHT22;52486;51.098;13.770;2022-07-10T10:18:21;26.40;40.50
65752;DHT22;52486;51.098;13.770;2022-07-10T10:20:49;26.40;40.50
65752;DHT22;52486;51.098;13.770;2022-07-10T10:23:22;26.50;40.50
65752;DHT22;52486;51.098;13.770;2022-07-10T10:25:49;26.40;40.40
65752;DHT22;52486;51.098;13.770;2022-07-10T10:28:17;26.40;41.20
65752;DHT22;52486;51.098;13.770;2022-07-10T10:30:44;26.50;40.50
65752;DHT22;52486;51.098;13.770;2022-07-10T10:36:02;26.50;40.50
65752;DHT22;52486;51.098;13.770;2022-07-10T10:38:59;26.50;40.40
65752;DHT22;52486;51.098;13.770;2022-07-10T10:41:26;26.50;40.50
65752;DHT22;52486;51.098;13.770;2022-07-10T10:49:17;26.50;40.40
65752;DHT22;52486;51.098;13.770;2022-07-10T10:54:23;26.50;40.40
65752;DHT22;52486;51.098;13.770;2022-07-10T10:57:18;26.50;40.40
65752;DHT22;52486;51.098;13.770;2022-07-10T10:59:48;26.50;40.40
65752;DHT22;52486;51.098;13.770;2022-07-10T11:02:40;26.50;40.30
65752;DHT22;52486;51.098;13.770;2022-07-10T11:07:55;26.50;40.30
65752;DHT22;52486;51.098;13.770;2022-07-10T11:13:12;26.50;40.30
65752;DHT22;52486;51.098;13.770;2022-07-10T11:15:41;26.60;40.30
65752;DHT22;52486;51.098;13.770;2022-07-10T11:20:44;26.60;40.30
65752;DHT22;52486;51.098;13.770;2022-07-10T11:23:23;26.60;40.30
65752;DHT22;52486;51.098;13.770;2022-07-10T11:25:54;26.50;40.30
65752;DHT22;52486;51.098;13.770;2022-07-10T11:31:12;26.60;40.30
65752;DHT22;52486;51.098;13.770;2022-07-10T11:33:42;26.60;40.30
65752;DHT22;52486;51.098;13.770;2022-07-10T11:36:11;26.60;40.30
65752;DHT22;52486;51.098;13.770;2022-07-10T11:38:39;26.60;40.30
65752;DHT22;52486;51.098;13.770;2022-07-10T11:41:12;26.60;40.20
65752;DHT22;52486;51.098;13.770;2022-07-10T11:43:49;26.60;40.20
65752;DHT22;52486;51.098;13.770;2022-07-10T11:46:15;26.60;40.20
65752;DHT22;52486;51.098;13.770;2022-07-10T11:48:41;26.60;40.20
65752;DHT22;52486;51.098;13.770;2022-07-10T11:51:26;26.60;40.10
65752;DHT22;52486;51.098;13.770;2022-07-10T11:56:27;26.60;40.80
65752;DHT22;52486;51.098;13.770;2022-07-10T11:58:58;26.60;40.10
65752;DHT22;52486;51.098;13.770;2022-07-10T12:01:24;26.60;40.00
65752;DHT22;52486;51.098;13.770;2022-07-10T12:06:26;26.60;40.00
65752;DHT22;52486;51.098;13.770;2022-07-10T12:08:52;26.60;40.00
65752;DHT22;52486;51.098;13.770;2022-07-10T12:11:19;26.70;40.00
65752;DHT22;52486;51.098;13.770;2022-07-10T12:13:47;26.70;40.00
65752;DHT22;52486;51.098;13.770;2022-07-10T12:16:13;26.60;39.90
65752;DHT22;52486;51.098;13.770;2022-07-10T12:18:41;26.60;40.00
65752;DHT22;52486;51.098;13.770;2022-07-10T12:21:10;26.60;39.90
65752;DHT22;52486;51.098;13.770;2022-07-10T12:23:37;26.70;40.00
65752;DHT22;52486;51.098;13.770;2022-07-10T12:26:08;26.70;40.00
65752;DHT22;52486;51.098;13.770;2022-07-10T12:28:54;26.70;40.00
65752;DHT22;52486;51.098;13.770;2022-07-10T12:31:21;26.70;40.00
65752;DHT22;52486;51.098;13.770;2022-07-10T12:33:52;26.70;40.60
65752;DHT22;52486;51.098;13.770;2022-07-10T12:36:18;26.60;39.90
65752;DHT22;52486;51.098;13.770;2022-07-10T12:38:56;26.60;39.90
65752;DHT22;52486;51.098;13.770;2022-07-10T12:41:23;26.70;39.90
65752;DHT22;52486;51.098;13.770;2022-07-10T12:43:51;26.60;39.90
65752;DHT22;52486;51.098;13.770;2022-07-10T12:46:18;26.70;40.00
65752;DHT22;52486;51.098;13.770;2022-07-10T12:49:04;26.70;39.90
65752;DHT22;52486;51.098;13.770;2022-07-10T12:54:05;26.60;39.90
65752;DHT22;52486;51.098;13.770;2022-07-10T12:56:37;26.60;39.80
65752;DHT22;52486;51.098;13.770;2022-07-10T12:59:13;26.60;39.80
65752;DHT22;52486;51.098;13.770;2022-07-10T13:01:43;26.60;39.80
65752;DHT22;52486;51.098;13.770;2022-07-10T13:04:10;26.60;39.80
65752;DHT22;52486;51.098;13.770;2022-07-10T13:06:37;26.70;39.90
65752;DHT22;52486;51.098;13.770;2022-07-10T13:09:19;26.60;39.80
65752;DHT22;52486;51.098;13.770;2022-07-10T13:11:44;26.70;39.90
65752;DHT22;52486;51.098;13.770;2022-07-10T13:14:10;26.60;39.80
65752;DHT22;52486;51.098;13.770;2022-07-10T13:16:36;26.70;39.80
65752;DHT22;52486;51.098;13.770;2022-07-10T13:19:01;26.70;39.80
65752;DHT22;52486;51.098;13.770;2022-07-10T13:21:27;26.70;39.80
65752;DHT22;52486;51.098;13.770;2022-07-10T13:23:53;26.70;39.70
65752;DHT22;52486;51.098;13.770;2022-07-10T13:26:18;26.70;40.50
65752;DHT22;52486;51.098;13.770;2022-07-10T13:28:44;26.70;39.70
65752;DHT22;52486;51.098;13.770;2022-07-10T13:31:10;26.70;39.70
65752;DHT22;52486;51.098;13.770;2022-07-10T13:33:35;26.70;39.70
65752;DHT22;52486;51.098;13.770;2022-07-10T13:36:02;26.70;39.70
65752;DHT22;52486;51.098;13.770;2022-07-10T13:38:28;26.70;39.70
65752;DHT22;52486;51.098;13.770;2022-07-10T13:40:54;26.70;39.70
65752;DHT22;52486;51.098;13.770;2022-07-10T13:43:19;26.70;39.60
65752;DHT22;52486;51.098;13.770;2022-07-10T13:45:46;26.70;39.70
65752;DHT22;52486;51.098;13.770;2022-07-10T13:48:13;26.70;39.60
65752;DHT22;52486;51.098;13.770;2022-07-10T13:50:40;26.70;39.60
65752;DHT22;52486;51.098;13.770;2022-07-10T13:53:06;26.70;39.60
65752;DHT22;52486;51.098;13.770;2022-07-10T13:55:33;26.70;39.60
65752;DHT22;52486;51.098;13.770;2022-07-10T13:57:59;26.70;39.60
65752;DHT22;52486;51.098;13.770;2022-07-10T14:00:24;26.70;39.60
65752;DHT22;52486;51.098;13.770;2022-07-10T14:02:50;26.70;39.60
65752;DHT22;52486;51.098;13.770;2022-07-10T14:05:16;26.70;39.60
65752;DHT22;52486;51.098;13.770;2022-07-10T14:07:41;26.70;39.60
65752;DHT22;52486;51.098;13.770;2022-07-10T14:10:07;26.70;39.60
65752;DHT22;52486;51.098;13.770;2022-07-10T14:12:33;26.70;39.50
65752;DHT22;52486;51.098;13.770;2022-07-10T14:14:59;26.70;39.60
65752;DHT22;52486;51.098;13.770;2022-07-10T14:17:26;26.70;39.60
65752;DHT22;52486;51.098;13.770;2022-07-10T14:19:52;26.70;39.50
65752;DHT22;52486;51.098;13.770;2022-07-10T14:22:17;26.70;39.50
65752;DHT22;52486;51.098;13.770;2022-07-10T14:24:43;26.70;39.50
65752;DHT22;52486;51.098;13.770;2022-07-10T14:27:08;26.70;39.60
65752;DHT22;52486;51.098;13.770;2022-07-10T14:29:36;26.70;39.50
65752;DHT22;52486;51.098;13.770;2022-07-10T14:32:02;26.70;39.50
65752;DHT22;52486;51.098;13.770;2022-07-10T14:34:28;26.70;39.50
65752;DHT22;52486;51.098;13.770;2022-07-10T14:36:54;26.70;39.50
65752;DHT22;52486;51.098;13.770;2022-07-10T14:39:20;26.70;39.40
65752;DHT22;52486;51.098;13.770;2022-07-10T14:41:46;26.70;39.50
65752;DHT22;52486;51.098;13.770;2022-07-10T14:44:11;26.70;39.40
65752;DHT22;52486;51.098;13.770;2022-07-10T14:46:37;26.70;39.40
65752;DHT22;52486;51.098;13.770;2022-07-10T14:49:03;26.70;39.40
65752;DHT22;52486;51.098;13.770;2022-07-10T14:51:29;26.70;39.40
65752;DHT22;52486;51.098;13.770;2022-07-10T14:53:55;26.70;39.40
65752;DHT22;52486;51.098;13.770;2022-07-10T14:56:22;26.70;39.30
65752;DHT22;52486;51.098;13.770;2022-07-10T14:58:48;26.70;39.40
65752;DHT22;52486;51.098;13.770;2022-07-10T15:01:15;26.70;39.40
65752;DHT22;52486;51.098;13.770;2022-07-10T15:03:41;26.70;39.40
65752;DHT22;52486;51.098;13.770;2022-07-10T15:06:06;26.70;39.40
65752;DHT22;52486;51.098;13.770;2022-07-10T15:08:32;26.70;39.30
65752;DHT22;52486;51.098;13.770;2022-07-10T15:10:58;26.70;39.40
65752;DHT22;52486;51.098;13.770;2022-07-10T15:13:26;26.70;39.40
65752;DHT22;52486;51.098;13.770;2022-07-10T15:15:52;26.70;39.40
65752;DHT22;52486;51.098;13.770;2022-07-10T15:18:19;26.70;39.30
65752;DHT22;52486;51.098;13.770;2022-07-10T15:20:45;26.70;39.30
65752;DHT22;52486;51.098;13.770;2022-07-10T15:23:11;26.70;39.30
65752;DHT22;52486;51.098;13.770;2022-07-10T15:25:38;26.70;39.30
65752;DHT22;52486;51.098;13.770;2022-07-10T15:28:09;26.70;39.40
65752;DHT22;52486;51.098;13.770;2022-07-10T15:30:36;26.70;39.30
65752;DHT22;52486;51.098;13.770;2022-07-10T15:33:03;26.70;39.30
65752;DHT22;52486;51.098;13.770;2022-07-10T15:35:29;26.70;39.30
65752;DHT22;52486;51.098;13.770;2022-07-10T15:37:55;26.70;39.30
65752;DHT22;52486;51.098;13.770;2022-07-10T15:40:21;26.70;39.30
65752;DHT22;52486;51.098;13.770;2022-07-10T15:42:47;26.70;39.30
65752;DHT22;52486;51.098;13.770;2022-07-10T15:45:13;26.70;39.30
65752;DHT22;52486;51.098;13.770;2022-07-10T15:47:39;26.70;39.30
65752;DHT22;52486;51.098;13.770;2022-07-10T15:50:05;26.70;39.30
65752;DHT22;52486;51.098;13.770;2022-07-10T15:52:31;26.70;39.20